Time;durP1;ratioP1;P1;durP2;ratioP2;P2;SDS_P1;SDS_P2;PMS_P1;PMS_P2;Temp;Humidity;BMP_temperature;BMP_pressure;BME280_temperature;BME280_humidity;BME280_pressure;Samples;Min_cycle;Max_cycle;Signal;HPM_P1;HPM_P2
2021/06/24 00:01:05;;;;;;;0.73;0.73;;;25.20;48.10;;;-147.20;100.00;58430.41;5133292;28;20569;-49
2021/06/24 00:03:33;;;;;;;1.80;1.08;;;25.10;48.00;;;-147.20;100.00;58430.41;5133553;28;20043;-51
2021/06/24 00:05:59;;;;;;;1.02;0.95;;;25.20;48.10;;;-147.20;100.00;58430.41;5129393;28;20508;-49
2021/06/24 00:08:26;;;;;;;1.25;1.00;;;25.10;48.00;;;-147.20;100.00;58430.41;5133749;28;20092;-53
2021/06/24 00:10:54;;;;;;;0.93;0.80;;;25.10;48.10;;;-147.20;100.00;58430.41;5133100;28;20125;-52
2021/06/24 00:13:21;;;;;;;1.73;1.08;;;25.10;48.10;;;-147.20;100.00;58430.41;5133316;28;20051;-49
2021/06/24 00:15:49;;;;;;;1.00;0.90;;;25.10;48.10;;;-147.20;100.00;58430.41;5133018;28;20053;-50
2021/06/24 00:18:15;;;;;;;1.13;0.93;;;25.10;48.10;;;-147.20;100.00;58430.41;5135890;28;20396;-48
2021/06/24 00:20:42;;;;;;;0.90;0.80;;;25.10;48.10;;;-147.20;100.00;58430.41;5136671;28;20046;-49
2021/06/24 00:23:08;;;;;;;1.10;0.90;;;25.10;48.10;;;-147.20;100.00;58430.41;5136815;28;20047;-49
2021/06/24 00:25:34;;;;;;;1.67;1.17;;;25.10;48.10;;;-147.20;100.00;58430.41;5136606;28;20106;-49
2021/06/24 00:28:01;;;;;;;1.08;0.90;;;25.10;48.10;;;-147.20;100.00;58430.41;5136234;28;20126;-52
2021/06/24 00:30:27;;;;;;;1.13;0.93;;;25.10;48.10;;;-147.20;100.00;58430.41;5136412;28;20055;-49
2021/06/24 00:32:53;;;;;;;1.20;0.80;;;25.10;48.20;;;-147.20;100.00;58430.41;5136443;28;20047;-48
2021/06/24 00:35:19;;;;;;;1.02;0.80;;;25.10;48.20;;;-147.20;100.00;58430.41;5136477;28;20400;-52
2021/06/24 00:37:47;;;;;;;0.93;0.93;;;25.10;48.20;;;-147.20;100.00;58430.41;5113609;28;20075;-51
2021/06/24 00:40:15;;;;;;;0.77;0.77;;;25.00;48.10;;;-147.20;100.00;58430.41;5136583;28;20051;-51
2021/06/24 00:42:42;;;;;;;0.73;0.73;;;25.00;48.10;;;-147.20;100.00;58430.41;5117749;28;20170;-51
2021/06/24 00:45:11;;;;;;;1.27;0.80;;;25.10;48.20;;;-147.20;100.00;58430.41;5136742;28;20051;-52
2021/06/24 00:47:39;;;;;;;1.27;0.90;;;25.00;48.20;;;-147.20;100.00;58430.41;5117640;28;20051;-48
2021/06/24 00:50:06;;;;;;;1.38;0.90;;;25.00;48.20;;;-147.20;100.00;58430.41;5136150;28;20047;-51
2021/06/24 00:52:33;;;;;;;0.90;0.90;;;25.00;48.20;;;-147.20;100.00;58430.41;5136074;28;20161;-50
2021/06/24 00:55:00;;;;;;;1.15;1.05;;;25.00;48.30;;;-147.20;100.00;58430.41;5117379;28;20108;-49
2021/06/24 00:57:26;;;;;;;1.90;1.13;;;25.00;48.30;;;-147.20;100.00;58430.41;5135869;28;20051;-51
2021/06/24 00:59:52;;;;;;;1.83;0.90;;;25.00;48.30;;;-147.20;100.00;58430.41;5117618;28;20047;-50
2021/06/24 01:02:19;;;;;;;1.17;0.93;;;25.00;48.30;;;-147.20;100.00;58430.41;5101141;28;20051;-49
2021/06/24 01:04:46;;;;;;;0.80;0.80;;;25.00;48.30;;;-147.20;100.00;58430.41;5116916;28;20061;-50
2021/06/24 01:07:12;;;;;;;0.85;0.80;;;25.00;48.30;;;-147.20;100.00;58430.41;5117082;28;20047;-49
2021/06/24 01:09:53;;;;;;;1.40;1.10;;;25.00;48.30;;;-147.20;100.00;58430.41;5117301;28;20043;-52
2021/06/24 01:12:21;;;;;;;0.85;0.85;;;25.00;48.30;;;-147.20;100.00;58430.41;5135844;28;20043;-49
2021/06/24 01:14:50;;;;;;;0.93;0.80;;;25.00;48.30;;;-147.20;100.00;58430.41;5117300;28;20047;-54
2021/06/24 01:17:16;;;;;;;1.20;0.98;;;25.00;48.30;;;-147.20;100.00;58430.41;5135754;28;20063;-51
2021/06/24 01:19:43;;;;;;;0.90;0.80;;;25.00;48.40;;;-147.20;100.00;58430.41;5117089;28;20096;-50
2021/06/24 01:22:09;;;;;;;1.02;0.88;;;25.00;48.40;;;-147.20;100.00;58430.41;5135600;28;20519;-51
2021/06/24 01:24:35;;;;;;;0.80;0.80;;;25.00;48.40;;;-147.20;100.00;58430.41;5135553;28;20138;-49
2021/06/24 01:27:01;;;;;;;0.80;0.80;;;25.00;48.40;;;-147.20;100.00;58430.41;5135543;28;20047;-50
2021/06/24 01:29:27;;;;;;;1.30;0.90;;;24.90;48.40;;;-147.20;100.00;58430.41;5115550;28;20077;-50
2021/06/24 01:31:54;;;;;;;0.80;0.80;;;25.00;48.40;;;-147.20;100.00;58430.41;5117297;28;20054;-49
2021/06/24 01:34:20;;;;;;;0.90;0.80;;;24.90;48.40;;;-147.20;100.00;58430.41;5117160;28;20450;-48
2021/06/24 01:36:47;;;;;;;0.77;0.75;;;24.90;48.40;;;-147.20;100.00;58430.41;5115806;28;20056;-48
2021/06/24 01:39:14;;;;;;;1.60;0.90;;;24.90;48.40;;;-147.20;100.00;58430.41;5135121;28;20051;-52
2021/06/24 01:41:40;;;;;;;0.80;0.80;;;24.90;48.40;;;-147.20;100.00;58430.41;5135112;28;20077;-52
2021/06/24 01:44:11;;;;;;;0.82;0.82;;;24.90;48.40;;;-147.20;100.00;58430.41;5135455;28;20138;-50
2021/06/24 01:46:36;;;;;;;1.58;0.90;;;24.90;48.50;;;-147.20;100.00;58430.41;5114322;28;20484;-51
2021/06/24 01:49:02;;;;;;;0.80;0.80;;;24.90;48.50;;;-147.20;100.00;58430.41;5098237;28;20065;-51
2021/06/24 01:51:30;;;;;;;0.70;0.70;;;24.90;48.50;;;-147.20;100.00;58430.41;5114877;28;20078;-50
2021/06/24 01:53:56;;;;;;;0.70;0.70;;;24.80;48.40;;;-147.20;100.00;58430.41;5135158;28;20092;-51
2021/06/24 01:56:23;;;;;;;2.20;0.90;;;24.90;48.50;;;-147.20;100.00;58430.41;5116558;28;20058;-52
2021/06/24 01:58:52;;;;;;;0.80;0.80;;;24.80;48.50;;;-147.20;100.00;58430.41;5116565;28;20385;-51
2021/06/24 02:01:34;;;;;;;1.00;0.70;;;24.90;48.50;;;-147.20;100.00;58430.41;5099217;28;20046;-48
2021/06/24 02:04:10;;;;;;;0.75;0.75;;;24.80;48.50;;;-147.20;100.00;58430.41;5116333;28;20053;-49
2021/06/24 02:06:38;;;;;;;1.65;0.88;;;24.90;48.60;;;-147.20;100.00;58430.41;5114639;28;20048;-48
2021/06/24 02:09:15;;;;;;;0.88;0.80;;;24.80;48.50;;;-147.20;100.00;58430.41;5112716;28;20401;-50
2021/06/24 02:11:55;;;;;;;1.23;0.98;;;24.80;48.50;;;-147.20;100.00;58430.41;5135094;28;20043;-50
2021/06/24 02:14:24;;;;;;;0.80;0.70;;;24.80;48.60;;;-147.20;100.00;58430.41;5116518;28;20043;-51
2021/06/24 02:16:51;;;;;;;0.70;0.70;;;24.80;48.60;;;-147.20;100.00;58430.41;5113947;28;20043;-52
2021/06/24 02:19:19;;;;;;;0.80;0.80;;;24.80;48.60;;;-147.20;100.00;58430.41;5114292;28;20047;-46
2021/06/24 02:22:09;;;;;;;0.75;0.75;;;24.80;48.60;;;-147.20;100.00;58430.41;5116901;28;20372;-47
2021/06/24 02:24:42;;;;;;;0.77;0.77;;;24.80;48.60;;;-147.20;100.00;58430.41;5116186;28;20057;-49
2021/06/24 02:27:11;;;;;;;1.00;0.80;;;24.80;48.60;;;-147.20;100.00;58430.41;5134743;28;20080;-46
2021/06/24 02:29:55;;;;;;;0.98;0.90;;;24.80;48.60;;;-147.20;100.00;58430.41;5134835;28;20557;-50
2021/06/24 02:32:21;;;;;;;0.70;0.70;;;24.80;48.70;;;-147.20;100.00;58430.41;5116678;28;20063;-47
2021/06/24 02:34:56;;;;;;;0.80;0.80;;;24.80;48.70;;;-147.20;100.00;58430.41;5116026;28;20050;-49
2021/06/24 02:37:33;;;;;;;1.30;0.82;;;24.80;48.70;;;-147.20;100.00;58430.41;5100291;28;20510;-47
2021/06/24 02:40:22;;;;;;;1.00;0.90;;;24.80;48.70;;;-147.20;100.00;58430.41;5119974;27;20047;-51
2021/06/24 02:42:48;;;;;;;0.95;0.80;;;24.70;48.70;;;-147.20;100.00;58430.41;5134340;28;20381;-51
2021/06/24 02:45:15;;;;;;;1.38;0.93;;;24.80;48.70;;;-147.20;100.00;58430.41;5115740;28;20050;-51
2021/06/24 02:47:42;;;;;;;0.88;0.70;;;24.80;48.70;;;-147.20;100.00;58430.41;5134077;28;20050;-51
2021/06/24 02:50:11;;;;;;;1.38;0.80;;;24.70;48.70;;;-147.20;100.00;58430.41;5115761;28;20035;-50
2021/06/24 02:52:37;;;;;;;0.70;0.70;;;24.80;48.80;;;-147.20;100.00;58430.41;5116084;28;20462;-45
2021/06/24 02:55:05;;;;;;;1.15;1.00;;;24.70;48.70;;;-147.20;100.00;58430.41;5134077;28;20047;-53
2021/06/24 02:57:42;;;;;;;0.90;0.80;;;24.70;48.70;;;-147.20;100.00;58430.41;5115572;28;20079;-45
2021/06/24 03:00:37;;;;;;;0.80;0.80;;;24.70;48.70;;;-147.20;100.00;58430.41;5115716;28;20038;-53
2021/06/24 03:03:22;;;;;;;0.80;0.75;;;24.70;48.80;;;-147.20;100.00;58430.41;5134413;28;20580;-49
2021/06/24 03:06:02;;;;;;;0.90;0.90;;;24.70;48.80;;;-147.20;100.00;58430.41;5134271;28;20043;-48
2021/06/24 03:08:28;;;;;;;1.17;0.80;;;24.70;48.80;;;-147.20;100.00;58430.41;5134351;28;20373;-46
2021/06/24 03:11:01;;;;;;;0.70;0.70;;;24.70;48.80;;;-147.20;100.00;58430.41;5115743;28;20066;-51
2021/06/24 03:13:27;;;;;;;0.88;0.80;;;24.70;48.80;;;-147.20;100.00;58430.41;5112566;28;20048;-52
2021/06/24 03:15:53;;;;;;;0.80;0.80;;;24.70;49.40;;;-147.20;100.00;58430.41;5133721;28;20039;-51
2021/06/24 03:18:19;;;;;;;0.80;0.80;;;24.70;48.80;;;-147.20;100.00;58430.41;5133708;28;20055;-49
2021/06/24 03:20:46;;;;;;;1.13;0.93;;;24.70;48.90;;;-147.20;100.00;58430.41;5115155;28;20047;-45
2021/06/24 03:23:12;;;;;;;1.02;0.90;;;24.70;48.90;;;-147.20;100.00;58430.41;5115160;28;20047;-48
2021/06/24 03:25:42;;;;;;;1.02;0.93;;;24.70;48.90;;;-147.20;100.00;58430.41;5113579;28;20497;-49
2021/06/24 03:28:08;;;;;;;0.75;0.75;;;24.70;48.90;;;-147.20;100.00;58430.41;5114811;28;20057;-47
2021/06/24 03:30:40;;;;;;;1.38;0.73;;;24.70;48.90;;;-147.20;100.00;58430.41;5115178;28;20572;-50
2021/06/24 03:33:06;;;;;;;0.90;0.90;;;24.70;48.90;;;-147.20;100.00;58430.41;5133540;28;20066;-52
2021/06/24 03:35:32;;;;;;;0.90;0.75;;;24.70;48.90;;;-147.20;100.00;58430.41;5115158;28;20070;-51
2021/06/24 03:37:58;;;;;;;0.80;0.80;;;24.70;48.90;;;-147.20;100.00;58430.41;5133526;28;20100;-47
2021/06/24 03:40:25;;;;;;;0.80;0.80;;;24.70;48.90;;;-147.20;100.00;58430.41;5115018;28;20141;-46
2021/06/24 03:42:54;;;;;;;0.73;0.70;;;24.70;48.80;;;-147.20;100.00;58430.41;5114988;28;20043;-50
2021/06/24 03:45:21;;;;;;;0.82;0.82;;;24.70;48.80;;;-147.20;100.00;58430.41;5114958;28;20133;-50
2021/06/24 03:47:47;;;;;;;1.70;0.90;;;24.70;48.90;;;-147.20;100.00;58430.41;5114815;28;20044;-49
2021/06/24 03:50:14;;;;;;;0.52;0.52;;;24.70;48.80;;;-147.20;100.00;58430.41;5114744;28;20054;-49
2021/06/24 03:52:42;;;;;;;0.77;0.77;;;24.70;48.80;;;-147.20;100.00;58430.41;5116938;28;20127;-49
2021/06/24 03:55:09;;;;;;;1.15;0.80;;;24.70;48.90;;;-147.20;100.00;58430.41;5137080;28;20055;-50
2021/06/24 03:57:36;;;;;;;0.73;0.70;;;24.70;48.90;;;-147.20;100.00;58430.41;5118302;28;20054;-52
2021/06/24 04:00:16;;;;;;;0.77;0.77;;;24.70;48.90;;;-147.20;100.00;58430.41;5118554;28;20123;-50
2021/06/24 04:02:45;;;;;;;0.80;0.80;;;24.70;48.90;;;-147.20;100.00;58430.41;5137452;28;20138;-50
2021/06/24 04:05:17;;;;;;;1.05;0.82;;;24.60;48.90;;;-147.20;100.00;58430.41;5118533;28;20042;-47
2021/06/24 04:07:46;;;;;;;1.00;0.90;;;24.70;49.00;;;-147.20;100.00;58430.41;5115483;28;20088;-46
2021/06/24 04:10:13;;;;;;;2.20;1.10;;;24.60;48.90;;;-147.20;100.00;58430.41;5118129;28;20075;-50
2021/06/24 04:12:39;;;;;;;0.80;0.70;;;24.70;48.90;;;-147.20;100.00;58430.41;5118770;28;20388;-45
2021/06/24 04:15:19;;;;;;;0.90;0.88;;;24.70;49.00;;;-147.20;100.00;58430.41;5121011;28;20047;-50
2021/06/24 04:17:46;;;;;;;0.80;0.80;;;24.70;49.00;;;-147.20;100.00;58430.41;5118175;28;20043;-50
2021/06/24 04:20:13;;;;;;;0.90;0.82;;;24.70;48.90;;;-147.20;100.00;58430.41;5136408;28;20058;-46
2021/06/24 04:22:42;;;;;;;1.02;0.93;;;24.70;48.90;;;-147.20;100.00;58430.41;5117626;28;20050;-50
2021/06/24 04:25:18;;;;;;;0.70;0.70;;;24.70;48.90;;;-147.20;100.00;58430.41;5118564;28;20076;-45
2021/06/24 04:27:46;;;;;;;0.80;0.70;;;24.70;48.90;;;-147.20;100.00;58430.41;5136858;28;20051;-50
2021/06/24 04:30:15;;;;;;;0.70;0.70;;;24.70;48.80;;;-147.20;100.00;58430.41;5118513;28;20137;-45
2021/06/24 04:32:44;;;;;;;0.80;0.80;;;24.80;48.70;;;-147.20;100.00;58430.41;5136824;28;20051;-48
2021/06/24 04:35:12;;;;;;;0.70;0.70;;;24.80;48.60;;;-147.20;100.00;58430.41;5117667;28;20054;-48
2021/06/24 04:37:39;;;;;;;0.65;0.60;;;24.90;48.50;;;-147.20;100.00;58430.41;5115606;28;20048;-47
2021/06/24 04:40:10;;;;;;;1.42;0.82;;;24.90;48.40;;;-147.20;100.00;58430.41;5114599;28;20079;-44
2021/06/24 04:42:46;;;;;;;0.73;0.70;;;24.90;48.40;;;-147.20;100.00;58430.41;5136677;28;20507;-45
2021/06/24 04:45:15;;;;;;;0.85;0.85;;;25.00;48.30;;;-147.20;100.00;58430.41;5136101;28;20514;-45
2021/06/24 04:48:00;;;;;;;0.80;0.80;;;24.90;48.30;;;-147.20;100.00;58430.41;5136368;28;20504;-48
2021/06/24 04:50:27;;;;;;;0.70;0.70;;;24.90;48.30;;;-147.20;100.00;58430.41;5117891;28;20393;-46
2021/06/24 04:52:54;;;;;;;0.68;0.65;;;24.90;48.30;;;-147.20;100.00;58430.41;5136172;28;20054;-47
2021/06/24 04:55:40;;;;;;;0.70;0.70;;;25.00;48.30;;;-147.20;100.00;58430.41;5116616;28;20047;-46
2021/06/24 04:58:14;;;;;;;0.80;0.80;;;25.10;48.20;;;-147.20;100.00;58430.41;5117884;28;20047;-48
2021/06/24 05:01:05;;;;;;;0.70;0.70;;;25.10;48.10;;;-147.20;100.00;58430.41;5136031;28;20039;-51
2021/06/24 05:03:50;;;;;;;0.70;0.70;;;25.20;47.90;;;-147.20;100.00;58430.41;5135507;27;20416;-48
2021/06/24 05:06:16;;;;;;;1.00;0.90;;;25.20;47.80;;;-147.20;100.00;58430.41;5136400;28;20051;-53
2021/06/24 05:08:42;;;;;;;0.60;0.60;;;25.20;47.90;;;-147.20;100.00;58430.41;5135648;28;20051;-46
2021/06/24 05:11:08;;;;;;;0.75;0.75;;;25.20;47.90;;;-147.20;100.00;58430.41;5135896;28;20404;-51
2021/06/24 05:13:34;;;;;;;1.00;0.93;;;25.20;47.90;;;-147.20;100.00;58430.41;5135604;28;20485;-47
2021/06/24 05:16:00;;;;;;;1.20;0.93;;;25.20;47.90;;;-147.20;100.00;58430.41;5116656;28;20048;-51
2021/06/24 05:18:26;;;;;;;1.00;0.90;;;25.20;47.90;;;-147.20;100.00;58430.41;5136319;28;20494;-49
2021/06/24 05:20:53;;;;;;;1.00;0.90;;;25.20;47.90;;;-147.20;100.00;58430.41;5135698;28;20077;-49
2021/06/24 05:23:18;;;;;;;0.90;0.90;;;25.20;47.90;;;-147.20;100.00;58430.41;5135502;28;20058;-51
2021/06/24 05:25:46;;;;;;;0.80;0.80;;;25.20;47.90;;;-147.20;100.00;58430.41;5135584;28;20252;-54
2021/06/24 05:28:12;;;;;;;0.55;0.55;;;25.10;47.90;;;-147.20;100.00;58430.41;5135504;28;20047;-50
2021/06/24 05:30:38;;;;;;;0.80;0.80;;;25.10;47.90;;;-147.20;100.00;58430.41;5135664;28;20499;-48
2021/06/24 05:33:05;;;;;;;0.77;0.77;;;25.10;47.90;;;-147.20;100.00;58430.41;5135493;28;20571;-49
2021/06/24 05:35:31;;;;;;;0.82;0.77;;;25.10;48.00;;;-147.20;100.00;58430.41;5116790;28;20059;-48
2021/06/24 05:37:57;;;;;;;0.93;0.82;;;25.10;48.00;;;-147.20;100.00;58430.41;5135443;28;20506;-48
2021/06/24 05:40:24;;;;;;;0.82;0.80;;;25.10;48.10;;;-147.20;100.00;58430.41;5135266;28;20097;-50
2021/06/24 05:42:50;;;;;;;0.60;0.60;;;25.00;48.00;;;-147.20;100.00;58430.41;5135227;28;20504;-52
2021/06/24 05:45:16;;;;;;;1.35;1.00;;;25.10;48.10;;;-147.20;100.00;58430.41;5116539;28;20095;-45
2021/06/24 05:47:41;;;;;;;0.70;0.70;;;25.00;48.60;;;-147.20;100.00;58430.41;5135044;28;20446;-44
2021/06/24 05:50:07;;;;;;;0.93;0.82;;;25.00;48.10;;;-147.20;100.00;58430.41;5117149;28;20039;-46
2021/06/24 05:52:36;;;;;;;0.55;0.55;;;25.00;48.00;;;-147.20;100.00;58430.41;5135052;28;20068;-47
2021/06/24 05:55:03;;;;;;;0.77;0.77;;;25.10;48.10;;;-147.20;100.00;58430.41;5135527;28;20066;-49
2021/06/24 05:57:29;;;;;;;0.98;0.88;;;25.10;48.10;;;-147.20;100.00;58430.41;5135007;28;20058;-46
2021/06/24 05:59:55;;;;;;;0.75;0.70;;;25.10;48.10;;;-147.20;100.00;58430.41;5134833;28;20051;-50
2021/06/24 06:02:21;;;;;;;0.93;0.80;;;25.10;48.10;;;-147.20;100.00;58430.41;5135110;28;20568;-48
2021/06/24 06:04:47;;;;;;;0.98;0.95;;;25.10;48.10;;;-147.20;100.00;58430.41;5134829;28;20118;-50
2021/06/24 06:07:13;;;;;;;0.60;0.60;;;25.00;48.00;;;-147.20;100.00;58430.41;5134710;28;20046;-47
2021/06/24 06:09:39;;;;;;;0.93;0.85;;;25.10;48.00;;;-147.20;100.00;58430.41;5134696;28;20062;-48
2021/06/24 06:12:05;;;;;;;1.33;0.90;;;25.10;48.00;;;-147.20;100.00;58430.41;5134592;28;20127;-48
2021/06/24 06:14:33;;;;;;;0.73;0.73;;;25.10;48.00;;;-147.20;100.00;58430.41;5112521;28;20489;-43
2021/06/24 06:17:00;;;;;;;0.82;0.82;;;25.10;48.00;;;-147.20;100.00;58430.41;5135022;28;20043;-48
2021/06/24 06:19:27;;;;;;;0.70;0.70;;;25.10;48.00;;;-147.20;100.00;58430.41;5134307;28;20530;-47
2021/06/24 06:21:53;;;;;;;0.60;0.60;;;25.10;48.00;;;-147.20;100.00;58430.41;5116274;28;20050;-52
2021/06/24 06:24:20;;;;;;;0.70;0.70;;;25.10;48.00;;;-147.20;100.00;58430.41;5134146;28;20051;-48
2021/06/24 06:26:46;;;;;;;0.70;0.70;;;25.10;48.00;;;-147.20;100.00;58430.41;5133898;28;20058;-51
2021/06/24 06:29:12;;;;;;;0.80;0.80;;;25.10;48.00;;;-147.20;100.00;58430.41;5134975;28;20512;-52
2021/06/24 06:31:39;;;;;;;0.70;0.70;;;25.10;47.90;;;-147.20;100.00;58430.41;5134538;28;20072;-50
2021/06/24 06:34:06;;;;;;;0.70;0.70;;;25.10;47.90;;;-147.20;100.00;58430.41;5133928;28;20050;-52
2021/06/24 06:36:33;;;;;;;0.70;0.70;;;25.10;47.90;;;-147.20;100.00;58430.41;5134208;28;20396;-53
2021/06/24 06:38:58;;;;;;;0.70;0.70;;;25.10;47.90;;;-147.20;100.00;58430.41;5114076;28;20386;-52
2021/06/24 06:41:24;;;;;;;1.50;0.90;;;25.10;47.90;;;-147.20;100.00;58430.41;5134113;28;20070;-50
2021/06/24 06:43:50;;;;;;;0.90;0.88;;;25.10;47.90;;;-147.20;100.00;58430.41;5134035;28;20051;-47
2021/06/24 06:46:16;;;;;;;0.70;0.70;;;25.20;48.00;;;-147.20;100.00;58430.41;5134040;28;20050;-49
2021/06/24 06:48:42;;;;;;;0.90;0.80;;;25.20;48.10;;;-147.20;100.00;58430.41;5109489;28;20043;-47
2021/06/24 06:51:08;;;;;;;0.60;0.60;;;25.30;47.90;;;-147.20;100.00;58430.41;5134014;28;20151;-47
2021/06/24 06:53:34;;;;;;;0.70;0.70;;;25.40;47.80;;;-147.20;100.00;58430.41;5134572;28;20051;-50
2021/06/24 06:56:00;;;;;;;0.70;0.70;;;25.40;47.50;;;-147.20;100.00;58430.41;5133988;28;20130;-52
2021/06/24 06:58:26;;;;;;;0.95;0.70;;;25.50;47.40;;;-147.20;100.00;58430.41;5133732;28;20047;-53
2021/06/24 07:00:51;;;;;;;0.55;0.55;;;25.60;47.20;;;-147.20;100.00;58430.41;5133860;28;20484;-53
2021/06/24 07:03:17;;;;;;;0.60;0.60;;;25.60;47.10;;;-147.20;100.00;58430.41;5133800;28;20054;-45
2021/06/24 07:05:43;;;;;;;0.75;0.70;;;25.70;47.00;;;-147.20;100.00;58430.41;5133832;28;20044;-50
2021/06/24 07:08:09;;;;;;;0.73;0.73;;;25.80;46.90;;;-147.20;100.00;58430.41;5133701;28;20496;-48
2021/06/24 07:10:35;;;;;;;0.70;0.70;;;25.80;46.70;;;-147.20;100.00;58430.41;5133618;28;20051;-47
2021/06/24 07:13:00;;;;;;;1.58;0.95;;;25.90;46.70;;;-147.20;100.00;58430.41;5133637;28;20162;-51
2021/06/24 07:15:26;;;;;;;0.80;0.80;;;26.00;46.60;;;-147.20;100.00;58430.41;5133605;28;20051;-47
2021/06/24 07:17:52;;;;;;;0.70;0.70;;;26.00;46.40;;;-147.20;100.00;58430.41;5133525;28;20495;-45
2021/06/24 07:20:19;;;;;;;0.57;0.57;;;26.10;46.40;;;-147.20;100.00;58430.41;5133540;28;20126;-49
2021/06/24 07:22:45;;;;;;;0.90;0.70;;;26.10;46.30;;;-147.20;100.00;58430.41;5115653;28;20095;-46
2021/06/24 07:25:18;;;;;;;0.88;0.70;;;26.10;46.10;;;-147.20;100.00;58430.41;5133891;28;20055;-52
2021/06/24 07:27:45;;;;;;;0.70;0.70;;;26.20;46.10;;;-147.20;100.00;58430.41;5115834;28;20534;-50
2021/06/24 07:30:13;;;;;;;0.70;0.65;;;26.30;46.00;;;-147.20;100.00;58430.41;5133539;28;20685;-49
2021/06/24 07:32:38;;;;;;;0.70;0.70;;;26.30;45.90;;;-147.20;100.00;58430.41;5133484;28;20081;-48
2021/06/24 07:35:06;;;;;;;0.60;0.60;;;26.30;45.80;;;-147.20;100.00;58430.41;5115378;28;20074;-49
2021/06/24 07:37:31;;;;;;;0.85;0.85;;;26.40;45.80;;;-147.20;100.00;58430.41;5133481;28;20084;-48
2021/06/24 07:39:57;;;;;;;0.90;0.90;;;26.40;45.70;;;-147.20;100.00;58430.41;5133493;28;20059;-47
2021/06/24 07:42:23;;;;;;;0.70;0.70;;;26.50;45.70;;;-147.20;100.00;58430.41;5133303;28;20054;-48
2021/06/24 07:44:49;;;;;;;0.70;0.70;;;26.50;45.60;;;-147.20;100.00;58430.41;5133404;28;20036;-48
2021/06/24 07:47:18;;;;;;;0.98;0.77;;;26.50;45.50;;;-147.20;100.00;58430.41;5133395;28;20047;-50
2021/06/24 07:49:45;;;;;;;0.80;0.80;;;26.50;45.40;;;-147.20;100.00;58430.41;5133554;28;20057;-49
2021/06/24 07:52:11;;;;;;;0.90;0.80;;;26.60;45.40;;;-147.20;100.00;58430.41;5133279;28;20047;-48
2021/06/24 07:54:37;;;;;;;0.60;0.60;;;26.60;45.30;;;-147.20;100.00;58430.41;5114976;28;20107;-52
2021/06/24 07:57:05;;;;;;;2.05;0.88;;;26.70;45.30;;;-147.20;100.00;58430.41;5133269;28;20039;-49
2021/06/24 07:59:32;;;;;;;1.33;0.80;;;26.70;45.10;;;30.29;30.45;101812.84;5114775;28;20054;-48
2021/06/24 08:01:58;;;;;;;0.70;0.70;;;26.80;45.10;;;30.69;29.96;101735.63;5133163;28;20043;-51
2021/06/24 08:04:26;;;;;;;0.82;0.73;;;26.80;45.10;;;30.64;30.07;101725.22;5133083;28;20492;-45
2021/06/24 08:06:52;;;;;;;0.95;0.80;;;26.70;45.10;;;30.65;29.95;101728.78;5132990;28;20548;-46
2021/06/24 08:09:18;;;;;;;0.70;0.70;;;26.70;45.20;;;30.63;29.86;101723.50;5132584;28;20051;-49
2021/06/24 08:11:44;;;;;;;0.60;0.60;;;26.70;45.20;;;30.55;29.98;101714.41;5132666;28;20138;-45
2021/06/24 08:14:09;;;;;;;0.80;0.73;;;26.60;45.10;;;30.60;30.08;101726.47;5132644;28;20130;-49
2021/06/24 08:16:35;;;;;;;1.13;0.70;;;26.60;45.20;;;30.64;30.03;101721.69;5132463;28;20160;-50
2021/06/24 08:19:04;;;;;;;0.82;0.63;;;26.70;45.20;;;30.64;30.09;101719.00;5132530;28;20492;-47
2021/06/24 08:21:30;;;;;;;0.80;0.80;;;26.70;45.10;;;30.62;29.89;101712.84;5114338;28;20044;-51
2021/06/24 08:23:56;;;;;;;0.63;0.60;;;26.70;45.20;;;30.63;30.05;101715.41;5133147;28;20066;-48
2021/06/24 08:26:22;;;;;;;0.70;0.70;;;26.80;45.10;;;30.67;29.92;101710.59;5132668;28;20055;-48
2021/06/24 08:28:48;;;;;;;0.70;0.68;;;26.80;45.10;;;30.70;29.85;101718.41;5132724;28;20039;-52
2021/06/24 08:31:13;;;;;;;0.80;0.80;;;26.80;45.00;;;30.75;29.89;101709.91;5132819;28;20152;-47
2021/06/24 08:33:40;;;;;;;1.25;0.90;;;26.90;45.00;;;30.75;29.78;101710.75;5132593;28;20062;-50
2021/06/24 08:36:07;;;;;;;0.60;0.60;;;26.90;45.40;;;30.81;29.74;101710.19;5132435;28;20050;-49
2021/06/24 08:38:33;;;;;;;1.13;0.80;;;26.90;44.80;;;30.87;29.58;101705.22;5134360;27;20142;-51
2021/06/24 08:41:00;;;;;;;1.55;0.70;;;27.00;44.80;;;30.90;29.78;101696.84;5136498;28;20142;-48
2021/06/24 08:43:26;;;;;;;0.95;0.75;;;27.00;44.70;;;30.91;29.87;101693.16;5117943;28;20047;-45
2021/06/24 08:46:03;;;;;;;0.77;0.70;;;27.00;44.60;;;30.96;29.42;101699.03;5136192;28;20051;-48
2021/06/24 08:48:36;;;;;;;1.23;0.70;;;27.00;44.50;;;30.95;29.50;101702.72;5118160;28;20054;-50
2021/06/24 08:51:04;;;;;;;0.90;0.80;;;27.10;44.50;;;31.00;29.49;101703.13;5136117;28;20062;-53
2021/06/24 08:53:32;;;;;;;0.80;0.80;;;27.10;44.50;;;31.02;29.40;101701.13;5136280;28;20112;-50
2021/06/24 08:55:58;;;;;;;1.67;0.60;;;27.10;44.40;;;31.02;29.48;101698.44;5136011;28;20049;-50
2021/06/24 08:58:25;;;;;;;0.82;0.80;;;27.10;44.40;;;30.99;29.41;101694.19;5135895;28;20050;-46
2021/06/24 09:00:52;;;;;;;0.95;0.70;;;27.10;44.40;;;31.00;29.35;101700.44;5136383;28;20074;-51
2021/06/24 09:03:21;;;;;;;0.80;0.80;;;27.10;44.40;;;30.98;29.34;101700.56;5136169;28;20063;-52
2021/06/24 09:06:09;;;;;;;0.57;0.57;;;27.10;44.40;;;30.97;29.66;101696.19;5117401;28;20061;-52
2021/06/24 09:08:45;;;;;;;1.27;0.70;;;27.10;44.40;;;30.97;29.48;101690.78;5135736;28;20047;-52
2021/06/24 09:11:24;;;;;;;0.73;0.73;;;27.10;44.40;;;30.96;29.44;101690.94;5117756;28;20081;-50
2021/06/24 09:14:04;;;;;;;0.88;0.80;;;27.10;44.40;;;30.95;29.46;101695.44;5136121;28;20039;-49
2021/06/24 09:16:34;;;;;;;0.65;0.65;;;27.10;44.50;;;30.95;29.45;101694.59;5135023;28;20043;-48
2021/06/24 09:19:23;;;;;;;0.98;0.88;;;27.00;44.40;;;30.95;29.53;101687.34;5135760;28;20055;-46
2021/06/24 09:22:08;;;;;;;0.98;0.65;;;27.00;44.40;;;30.95;29.55;101702.72;5133467;28;20039;-48
2021/06/24 09:24:43;;;;;;;2.03;0.80;;;27.10;44.50;;;30.90;29.53;101692.28;5135467;28;20119;-46
2021/06/24 09:27:18;;;;;;;0.60;0.60;;;27.00;44.40;;;30.90;29.56;101688.75;5135401;28;20122;-53
2021/06/24 09:29:59;;;;;;;2.15;0.80;;;27.00;44.40;;;30.87;29.87;101697.13;5135647;28;20047;-48
2021/06/24 09:32:39;;;;;;;3.20;0.70;;;27.00;44.50;;;30.84;29.52;101701.81;5135544;28;20047;-48
2021/06/24 09:35:09;;;;;;;1.17;0.77;;;27.00;44.50;;;30.83;29.75;101688.47;5135110;28;20511;-47
2021/06/24 09:38:07;;;;;;;0.70;0.70;;;27.00;44.40;;;30.87;29.57;101695.28;5117072;28;20039;-46
2021/06/24 09:40:54;;;;;;;1.08;0.80;;;27.00;44.50;;;30.82;29.56;101692.13;5135746;28;20039;-51
2021/06/24 09:43:28;;;;;;;0.98;0.80;;;27.00;44.50;;;30.85;29.51;101691.88;5135337;28;20100;-46
2021/06/24 09:46:14;;;;;;;0.80;0.70;;;27.00;44.40;;;30.81;29.59;101696.69;5135257;28;20364;-52
2021/06/24 09:48:51;;;;;;;1.02;0.82;;;27.10;44.40;;;30.83;29.63;101688.47;5134352;27;20062;-49
2021/06/24 09:51:20;;;;;;;0.73;0.70;;;27.00;44.30;;;30.83;29.51;101689.31;5116856;28;20100;-45
2021/06/24 09:53:52;;;;;;;0.75;0.70;;;27.00;44.30;;;30.84;29.63;101692.88;5135000;28;20498;-48
2021/06/24 09:56:21;;;;;;;0.90;0.60;;;27.10;44.40;;;30.83;29.30;101688.47;5115258;28;20458;-52
2021/06/24 09:58:48;;;;;;;0.70;0.70;;;27.00;44.30;;;30.80;29.56;101678.78;5134793;28;20130;-50
2021/06/24 10:01:37;;;;;;;1.00;0.80;;;27.10;44.30;;;30.80;29.62;101686.88;5134853;28;20100;-47
2021/06/24 10:04:23;;;;;;;0.63;0.63;;;27.10;44.40;;;30.80;29.69;101692.28;5135271;28;20051;-51
2021/06/24 10:06:55;;;;;;;1.00;0.90;;;27.10;44.40;;;30.82;29.77;101689.44;5134804;28;20086;-49
2021/06/24 10:09:23;;;;;;;0.60;0.60;;;27.10;44.40;;;30.83;29.37;101685.75;5134252;28;20042;-50
2021/06/24 10:11:49;;;;;;;1.42;0.80;;;27.10;44.40;;;30.81;29.65;101685.06;5134736;28;20054;-50